Time;durP1;ratioP1;P1;durP2;ratioP2;P2;SDS_P1;SDS_P2;PMS_P1;PMS_P2;Temp;Humidity;BMP_temperature;BMP_pressure;BME280_temperature;BME280_humidity;BME280_pressure;Samples;Min_cycle;Max_cycle;Signal;HPM_P1;HPM_P2
2023/06/14 00:01:29;;;;;;;;;;;;;;;20.36;71.11;99340.00;3172006;28;19928;-67
2023/06/14 00:03:00;;;;;;;;;;;;;;;20.35;71.05;99331.25;3172218;28;20340;-66
2023/06/14 00:04:32;;;;;;;;;;;;;;;20.35;71.24;99327.75;3171851;28;19924;-66
2023/06/14 00:06:04;;;;;;;;;;;;;;;20.31;71.25;99326.38;3172170;28;19927;-65
2023/06/14 00:07:36;;;;;;;;;;;;;;;20.30;71.38;99327.34;3172549;28;19923;-68
2023/06/14 00:09:08;;;;;;;;;;;;;;;20.28;71.72;99326.66;3171721;28;19927;-66
2023/06/14 00:10:41;;;;;;;;;;;;;;;20.30;71.63;99327.34;3162455;28;19924;-66
2023/06/14 00:12:13;;;;;;;;;;;;;;;20.30;71.29;99322.91;3167596;28;19938;-66
2023/06/14 00:13:45;;;;;;;;;;;;;;;20.27;71.62;99323.19;3172128;28;19931;-66
2023/06/14 00:15:17;;;;;;;;;;;;;;;20.26;71.84;99328.59;3171845;28;19924;-66
2023/06/14 00:16:47;;;;;;;;;;;;;;;20.23;71.87;99321.78;3171289;28;19928;-66
2023/06/14 00:18:19;;;;;;;;;;;;;;;20.24;71.97;99323.47;3171704;28;19923;-66
2023/06/14 00:19:51;;;;;;;;;;;;;;;20.26;71.81;99320.66;3172062;28;19946;-66
2023/06/14 00:21:22;;;;;;;;;;;;;;;20.28;71.62;99324.84;3172093;28;19986;-67
2023/06/14 00:22:54;;;;;;;;;;;;;;;20.27;71.83;99323.19;3171711;28;19979;-68
2023/06/14 00:24:26;;;;;;;;;;;;;;;20.27;71.75;99327.66;3171323;28;19923;-68
2023/06/14 00:25:58;;;;;;;;;;;;;;;20.28;71.74;99329.31;3162185;28;20341;-68
2023/06/14 00:27:28;;;;;;;;;;;;;;;20.26;71.72;99325.94;3172155;28;19924;-68
2023/06/14 00:29:00;;;;;;;;;;;;;;;20.27;71.86;99328.47;3171646;28;19976;-68
2023/06/14 00:30:31;;;;;;;;;;;;;;;20.29;71.65;99325.66;3171834;28;19946;-68
2023/06/14 00:32:02;;;;;;;;;;;;;;;20.31;71.94;99323.72;3171449;28;20702;-68
2023/06/14 00:33:34;;;;;;;;;;;;;;;20.31;71.73;99319.25;3172023;28;19927;-68
2023/06/14 00:35:08;;;;;;;;;;;;;;;20.30;71.83;99319.41;3171652;28;19931;-68
2023/06/14 00:36:39;;;;;;;;;;;;;;;20.28;71.96;99318.72;3171317;28;19924;-67
2023/06/14 00:38:11;;;;;;;;;;;;;;;20.28;71.95;99318.72;3171619;28;19924;-66
2023/06/14 00:39:41;;;;;;;;;;;;;;;20.28;71.88;99321.38;3171520;28;19928;-67
2023/06/14 00:41:13;;;;;;;;;;;;;;;20.25;72.48;99321.66;3171317;28;19928;-67
2023/06/14 00:42:44;;;;;;;;;;;;;;;20.20;72.58;99314.13;3170472;28;19927;-67
2023/06/14 00:44:17;;;;;;;;;;;;;;;20.17;72.91;99319.72;3171750;28;19924;-66
2023/06/14 00:45:49;;;;;;;;;;;;;;;20.16;72.67;99310.13;3171692;28;19927;-67
2023/06/14 00:47:20;;;;;;;;;;;;;;;20.15;72.95;99308.47;3171478;28;19924;-67
2023/06/14 00:48:52;;;;;;;;;;;;;;;20.12;73.28;99308.75;3171351;28;20319;-67
2023/06/14 00:50:26;;;;;;;;;;;;;;;20.08;73.45;99305.53;3171464;28;19927;-68
2023/06/14 00:51:57;;;;;;;;;;;;;;;20.04;73.54;99301.53;3171513;28;20384;-67
2023/06/14 00:53:29;;;;;;;;;;;;;;;20.02;73.79;99300.81;3171622;28;19927;-68
2023/06/14 00:55:01;;;;;;;;;;;;;;;19.96;74.29;99304.84;3171137;28;20388;-68
2023/06/14 00:56:32;;;;;;;;;;;;;;;19.95;74.44;99305.00;3158796;28;20381;-68
2023/06/14 00:58:04;;;;;;;;;;;;;;;19.95;74.42;99310.31;3169478;28;20448;-68
2023/06/14 00:59:37;;;;;;;;;;;;;;;19.92;74.85;99302.66;3171469;28;20015;-68
2023/06/14 01:01:09;;;;;;;;;;;;;;;19.92;74.56;99308.78;3171035;28;19953;-68
2023/06/14 01:02:41;;;;;;;;;;;;;;;19.91;74.77;99301.81;3170558;28;20016;-67
2023/06/14 01:04:12;;;;;;;;;;;;;;;19.90;74.84;99302.78;3168772;28;19985;-68
2023/06/14 01:05:45;;;;;;;;;;;;;;;19.89;75.12;99302.94;3167080;28;19935;-68
2023/06/14 01:07:23;;;;;;;;;;;;;;;19.87;75.26;99299.59;3171429;28;20396;-68
2023/06/14 01:09:03;;;;;;;;;;;;;;;19.88;75.21;99302.09;3166484;28;20469;-68
2023/06/14 01:10:38;;;;;;;;;;;;;;;19.87;75.67;99299.59;3168788;28;19975;-68
2023/06/14 01:12:11;;;;;;;;;;;;;;;19.84;75.56;99299.88;3166815;28;19924;-68
2023/06/14 01:13:45;;;;;;;;;;;;;;;19.80;76.11;99301.97;3171367;28;19931;-68
2023/06/14 01:15:16;;;;;;;;;;;;;;;19.78;76.08;99296.81;3170928;28;19924;-68
2023/06/14 01:16:49;;;;;;;;;;;;;;;19.77;76.30;99294.31;3170989;28;20014;-68
2023/06/14 01:18:20;;;;;;;;;;;;;;;19.70;76.14;99283.50;3171353;28;19924;-68
2023/06/14 01:19:57;;;;;;;;;;;;;;;19.76;76.54;99297.94;3171028;28;19924;-68
2023/06/14 01:21:30;;;;;;;;;;;;;;;19.72;76.67;99299.19;3171278;28;20011;-68
2023/06/14 01:23:03;;;;;;;;;;;;;;;19.70;76.89;99295.84;3170844;28;20397;-67
2023/06/14 01:24:35;;;;;;;;;;;;;;;19.68;76.97;99295.16;3171092;28;19977;-68
2023/06/14 01:26:06;;;;;;;;;;;;;;;19.68;77.13;99295.16;3168010;28;20320;-68
2023/06/14 01:27:37;;;;;;;;;;;;;;;19.68;77.30;99298.63;3171010;28;19924;-67
2023/06/14 01:29:11;;;;;;;;;;;;;;;19.66;77.31;99297.94;3170286;28;19980;-68
2023/06/14 01:30:44;;;;;;;;;;;;;;;19.67;77.32;99299.63;3170835;28;19927;-68
2023/06/14 01:32:17;;;;;;;;;;;;;;;19.67;77.30;99294.34;3171132;28;19923;-67
2023/06/14 01:33:50;;;;;;;;;;;;;;;19.68;77.41;99297.81;3158113;28;19965;-67
2023/06/14 01:35:21;;;;;;;;;;;;;;;19.69;77.18;99302.94;3170777;28;19923;-68
2023/06/14 01:36:54;;;;;;;;;;;;;;;19.71;76.93;99295.72;3170598;28;19924;-67
2023/06/14 01:38:28;;;;;;;;;;;;;;;19.75;76.88;99298.91;3168083;28;19924;-67
2023/06/14 01:39:59;;;;;;;;;;;;;;;19.76;76.73;99290.84;3168359;28;19924;-67
2023/06/14 01:41:31;;;;;;;;;;;;;;;19.77;76.83;99299.59;3165486;28;19938;-67
2023/06/14 01:43:03;;;;;;;;;;;;;;;19.78;76.71;99298.63;3167291;28;19924;-68
2023/06/14 01:44:34;;;;;;;;;;;;;;;19.80;76.81;99298.50;3170870;28;19927;-68
2023/06/14 01:46:05;;;;;;;;;;;;;;;19.79;76.41;99297.66;3170702;28;19924;-68
2023/06/14 01:47:37;;;;;;;;;;;;;;;19.81;76.88;99300.16;3170619;28;19924;-68
2023/06/14 01:49:09;;;;;;;;;;;;;;;19.80;76.70;99294.03;3170711;28;19951;-68
2023/06/14 01:50:39;;;;;;;;;;;;;;;19.78;76.69;99294.16;3170089;28;20414;-66
2023/06/14 01:52:11;;;;;;;;;;;;;;;19.77;76.70;99295.16;3170670;28;19931;-65
2023/06/14 01:53:45;;;;;;;;;;;;;;;19.75;76.72;99294.44;3170628;28;19923;-65
2023/06/14 01:55:17;;;;;;;;;;;;;;;19.73;76.87;99293.78;3170836;28;19924;-65
2023/06/14 01:56:49;;;;;;;;;;;;;;;19.71;76.84;99295.72;3163505;28;19951;-65
2023/06/14 01:58:21;;;;;;;;;;;;;;;19.70;76.88;99293.19;3170609;28;20369;-65
2023/06/14 01:59:52;;;;;;;;;;;;;;;19.71;76.84;99298.34;3170606;28;19985;-65
2023/06/14 02:01:24;;;;;;;;;;;;;;;19.74;76.78;99300.72;3170913;28;19928;-65
2023/06/14 02:02:55;;;;;;;;;;;;;;;19.75;76.72;99299.72;3168414;28;20474;-64
2023/06/14 02:04:27;;;;;;;;;;;;;;;19.76;76.87;99298.78;3170252;28;20014;-65
2023/06/14 02:05:58;;;;;;;;;;;;;;;19.78;76.62;99303.91;3170147;28;20039;-68
2023/06/14 02:07:30;;;;;;;;;;;;;;;19.76;76.84;99298.78;3170620;28;19988;-69
2023/06/14 02:09:02;;;;;;;;;;;;;;;19.74;76.85;99300.72;3162172;28;19931;-68
2023/06/14 02:10:34;;;;;;;;;;;;;;;19.73;76.81;99300.88;3166549;28;20038;-68
2023/06/14 02:12:05;;;;;;;;;;;;;;;19.72;76.99;99302.66;3168237;28;20332;-68
2023/06/14 02:13:37;;;;;;;;;;;;;;;19.73;76.71;99300.88;3170581;28;19923;-68
2023/06/14 02:15:08;;;;;;;;;;;;;;;19.72;76.90;99296.53;3170474;28;19924;-69
2023/06/14 02:16:39;;;;;;;;;;;;;;;19.68;77.25;99301.28;3170642;28;19939;-68
2023/06/14 02:18:11;;;;;;;;;;;;;;;19.65;77.13;99301.56;3170246;28;19931;-68
2023/06/14 02:19:43;;;;;;;;;;;;;;;19.65;77.41;99303.38;3170129;28;19924;-67
2023/06/14 02:21:15;;;;;;;;;;;;;;;19.65;77.27;99298.09;3170391;28;19924;-69
2023/06/14 02:22:46;;;;;;;;;;;;;;;19.63;77.62;99302.63;3170167;28;19928;-69
2023/06/14 02:24:19;;;;;;;;;;;;;;;19.59;77.61;99303.91;3170182;28;20385;-69
2023/06/14 02:25:51;;;;;;;;;;;;;;;19.57;77.69;99306.66;3170464;28;19983;-69
2023/06/14 02:27:23;;;;;;;;;;;;;;;19.55;77.92;99304.19;3160199;28;19924;-69
2023/06/14 02:28:54;;;;;;;;;;;;;;;19.56;77.61;99305.00;3169993;28;19928;-68
2023/06/14 02:30:25;;;;;;;;;;;;;;;19.58;77.35;99303.06;3170180;28;19924;-68
2023/06/14 02:31:57;;;;;;;;;;;;;;;19.58;77.47;99307.50;3170517;28;19924;-68
2023/06/14 02:33:28;;;;;;;;;;;;;;;19.58;77.45;99305.72;3170449;28;20745;-69
2023/06/14 02:35:00;;;;;;;;;;;;;;;19.60;77.29;99308.19;3169662;28;20420;-69
2023/06/14 02:36:31;;;;;;;;;;;;;;;19.63;77.20;99307.91;3165672;28;20293;-69
2023/06/14 02:38:03;;;;;;;;;;;;;;;19.63;77.28;99303.47;3170220;28;19928;-68
2023/06/14 02:39:36;;;;;;;;;;;;;;;19.66;77.19;99308.50;3170037;28;19928;-70
2023/06/14 02:41:08;;;;;;;;;;;;;;;19.65;77.11;99306.00;3169821;28;20296;-69
2023/06/14 02:42:39;;;;;;;;;;;;;;;19.67;77.04;99306.69;3164126;28;19924;-69
2023/06/14 02:44:12;;;;;;;;;;;;;;;19.65;76.94;99306.84;3170278;28;19935;-70
2023/06/14 02:45:44;;;;;;;;;;;;;;;19.64;76.84;99310.44;3169808;28;19927;-70
2023/06/14 02:47:15;;;;;;;;;;;;;;;19.64;76.98;99305.16;3170044;28;19984;-68
2023/06/14 02:48:47;;;;;;;;;;;;;;;19.64;76.82;99314.84;3169874;28;20963;-68
2023/06/14 02:50:18;;;;;;;;;;;;;;;19.63;76.92;99314.03;3164549;28;19935;-68
2023/06/14 02:51:49;;;;;;;;;;;;;;;19.60;76.99;99314.31;3165123;28;19936;-67
2023/06/14 02:53:21;;;;;;;;;;;;;;;19.57;77.29;99311.94;3169853;28;19990;-68
2023/06/14 02:54:53;;;;;;;;;;;;;;;19.57;77.21;99311.13;3170428;28;19964;-68
2023/06/14 02:56:26;;;;;;;;;;;;;;;19.58;77.02;99316.28;3170217;28;20297;-68
2023/06/14 02:57:57;;;;;;;;;;;;;;;19.59;77.16;99315.28;3170004;28;19924;-68
2023/06/14 02:59:28;;;;;;;;;;;;;;;19.57;77.27;99314.59;3170136;28;19928;-68
2023/06/14 03:01:03;;;;;;;;;;;;;;;19.53;77.13;99321.13;3167205;28;20585;-67
2023/06/14 03:02:34;;;;;;;;;;;;;;;19.49;77.62;99322.34;3170311;28;19928;-68
2023/06/14 03:04:06;;;;;;;;;;;;;;;19.46;77.67;99322.63;3170194;28;20592;-70
2023/06/14 03:05:37;;;;;;;;;;;;;;;19.42;77.85;99327.38;3169997;28;19946;-67
2023/06/14 03:07:09;;;;;;;;;;;;;;;19.42;77.66;99331.81;3170516;28;19927;-67
2023/06/14 03:08:42;;;;;;;;;;;;;;;19.40;77.75;99331.94;3162560;28;20022;-70
2023/06/14 03:10:14;;;;;;;;;;;;;;;19.37;77.98;99332.22;3170257;28;20739;-67
2023/06/14 03:11:46;;;;;;;;;;;;;;;19.35;77.99;99334.19;3168694;28;19935;-70
2023/06/14 03:13:17;;;;;;;;;;;;;;;19.33;78.22;99334.31;3168543;28;20384;-67
2023/06/14 03:14:50;;;;;;;;;;;;;;;19.32;78.04;99337.09;3169844;28;19927;-68
2023/06/14 03:16:23;;;;;;;;;;;;;;;19.31;78.25;99343.31;3170061;28;19927;-69
2023/06/14 03:17:55;;;;;;;;;;;;;;;19.31;78.04;99344.19;3170119;28;20363;-68
2023/06/14 03:19:26;;;;;;;;;;;;;;;19.33;78.01;99346.66;3170168;28;19943;-68
2023/06/14 03:20:57;;;;;;;;;;;;;;;19.34;78.04;99345.69;3170068;28;19977;-68
2023/06/14 03:22:28;;;;;;;;;;;;;;;19.37;77.86;99342.78;3170066;28;19967;-68
2023/06/14 03:24:00;;;;;;;;;;;;;;;19.39;77.71;99343.47;3169812;28;19924;-68
2023/06/14 03:25:35;;;;;;;;;;;;;;;19.42;77.75;99347.66;3170414;28;20470;-68
2023/06/14 03:27:09;;;;;;;;;;;;;;;19.45;77.60;99348.22;3166880;28;19958;-67
2023/06/14 03:28:40;;;;;;;;;;;;;;;19.49;77.59;99343.50;3161537;28;19924;-67
2023/06/14 03:30:12;;;;;;;;;;;;;;;19.53;77.30;99348.38;3169811;28;19928;-67
2023/06/14 03:31:57;;;;;;;;;;;;;;;19.56;77.24;99341.97;3164649;28;20267;-67
2023/06/14 03:33:29;;;;;;;;;;;;;;;19.61;77.02;99345.06;3164658;28;19935;-67
2023/06/14 03:35:00;;;;;;;;;;;;;;;19.64;77.18;99352.69;3164758;28;20030;-67
2023/06/14 03:36:33;;;;;;;;;;;;;;;19.67;76.73;99357.75;3164430;28;20169;-67
2023/06/14 03:38:05;;;;;;;;;;;;;;;19.69;76.54;99355.78;3165060;28;19936;-67
2023/06/14 03:39:37;;;;;;;;;;;;;;;19.72;76.45;99360.78;3159722;28;20031;-67
2023/06/14 03:41:10;;;;;;;;;;;;;;;19.76;76.40;99356.91;3164059;28;19985;-67
2023/06/14 03:42:41;;;;;;;;;;;;;;;19.76;76.22;99356.91;3163943;28;19935;-68
2023/06/14 03:44:15;;;;;;;;;;;;;;;19.78;76.18;99352.28;3164587;28;19928;-67
2023/06/14 03:45:46;;;;;;;;;;;;;;;19.80;76.11;99356.63;3164378;28;20168;-67
2023/06/14 03:47:18;;;;;;;;;;;;;;;19.80;76.03;99362.75;3164421;28;19927;-67
2023/06/14 03:48:49;;;;;;;;;;;;;;;19.82;76.04;99362.59;3164739;28;19928;-67
2023/06/14 03:50:21;;;;;;;;;;;;;;;19.83;76.02;99373.03;3164480;28;20461;-66
2023/06/14 03:51:53;;;;;;;;;;;;;;;19.84;75.80;99374.69;3161481;28;19927;-67
2023/06/14 03:53:25;;;;;;;;;;;;;;;19.85;75.81;99376.38;3167302;28;20434;-67
2023/06/14 03:54:56;;;;;;;;;;;;;;;19.86;75.69;99382.50;3166973;28;19928;-67
2023/06/14 03:56:29;;;;;;;;;;;;;;;19.88;75.74;99383.19;3166452;28;19928;-66
2023/06/14 03:58:02;;;;;;;;;;;;;;;19.90;75.62;99373.31;3158939;28;19935;-66
2023/06/14 03:59:33;;;;;;;;;;;;;;;19.89;75.52;99383.03;3164590;28;19935;-66
2023/06/14 04:01:06;;;;;;;;;;;;;;;19.89;75.61;99377.75;3165473;28;19928;-66
2023/06/14 04:02:37;;;;;;;;;;;;;;;19.89;75.64;99379.56;3166782;28;20440;-66
2023/06/14 04:04:09;;;;;;;;;;;;;;;19.89;75.71;99377.75;3166609;28;19932;-66
2023/06/14 04:05:41;;;;;;;;;;;;;;;19.91;75.54;99375.81;3165387;28;20509;-66
2023/06/14 04:07:12;;;;;;;;;;;;;;;19.91;75.40;99375.00;3167120;28;19954;-66
2023/06/14 04:08:45;;;;;;;;;;;;;;;19.89;75.85;99379.56;3159608;28;20089;-67
2023/06/14 04:10:17;;;;;;;;;;;;;;;19.84;75.78;99372.03;3161344;28;19990;-66
2023/06/14 04:11:50;;;;;;;;;;;;;;;19.80;76.18;99386.53;3166561;28;19971;-65
2023/06/14 04:13:21;;;;;;;;;;;;;;;19.77;76.17;99390.25;3163132;28;19927;-67
2023/06/14 04:14:52;;;;;;;;;;;;;;;19.76;76.27;99383.31;3166260;28;19927;-66
2023/06/14 04:16:24;;;;;;;;;;;;;;;19.75;76.24;99392.19;3166504;28;19935;-66
2023/06/14 04:17:57;;;;;;;;;;;;;;;19.77;76.25;99392.09;3166879;28;20003;-66
2023/06/14 04:19:28;;;;;;;;;;;;;;;19.78;76.19;99391.94;3166220;28;19927;-69
2023/06/14 04:21:00;;;;;;;;;;;;;;;19.84;76.05;99390.53;3166531;28;19935;-68
2023/06/14 04:22:31;;;;;;;;;;;;;;;19.84;76.05;99393.19;3166484;28;19932;-68
2023/06/14 04:24:03;;;;;;;;;;;;;;;19.84;76.05;99387.06;3166523;28;19945;-68
2023/06/14 04:25:36;;;;;;;;;;;;;;;19.85;76.21;99391.41;3166458;28;19934;-69
2023/06/14 04:27:09;;;;;;;;;;;;;;;19.85;76.05;99394.03;3165652;28;19927;-70
2023/06/14 04:28:40;;;;;;;;;;;;;;;19.82;76.11;99397.78;3163914;28;19928;-69
2023/06/14 04:30:13;;;;;;;;;;;;;;;19.82;76.43;99394.28;3166005;28;19928;-67
2023/06/14 04:31:45;;;;;;;;;;;;;;;19.82;76.33;99396.94;3166202;28;19979;-68
2023/06/14 04:33:17;;;;;;;;;;;;;;;19.85;76.26;99396.69;3166829;28;19928;-66
2023/06/14 04:34:49;;;;;;;;;;;;;;;19.89;76.04;99398.06;3165774;28;20389;-67
2023/06/14 04:36:21;;;;;;;;;;;;;;;19.81;76.15;99379.41;3166244;28;19984;-67
2023/06/14 04:37:53;;;;;;;;;;;;;;;19.92;75.98;99398.63;3166143;28;20405;-68
2023/06/14 04:39:25;;;;;;;;;;;;;;;19.97;75.89;99385.00;3167162;28;19967;-69
2023/06/14 04:40:56;;;;;;;;;;;;;;;20.02;75.71;99388.03;3166449;28;20364;-70
2023/06/14 04:42:30;;;;;;;;;;;;;;;20.08;75.67;99397.22;3163565;28;19928;-68
2023/06/14 04:44:07;;;;;;;;;;;;;;;20.13;75.48;99397.66;3154688;28;20042;-67
2023/06/14 04:45:39;;;;;;;;;;;;;;;20.17;75.62;99402.53;3153399;28;20458;-71
2023/06/14 04:47:12;;;;;;;;;;;;;;;20.21;75.20;99397.78;3165896;28;19928;-70
2023/06/14 04:48:45;;;;;;;;;;;;;;;20.26;75.17;99403.50;3162660;28;20694;-70
2023/06/14 04:50:18;;;;;;;;;;;;;;;20.30;75.07;99401.41;3164723;28;20050;-73
2023/06/14 04:51:50;;;;;;;;;;;;;;;20.36;74.89;99398.19;3166265;28;19984;-72
2023/06/14 04:53:23;;;;;;;;;;;;;;;20.40;74.91;99407.50;3166043;28;20399;-71
2023/06/14 04:54:55;;;;;;;;;;;;;;;20.44;74.79;99404.44;3158364;28;19978;-70
2023/06/14 04:56:27;;;;;;;;;;;;;;;20.46;74.56;99404.28;3161671;28;19944;-71
2023/06/14 04:58:00;;;;;;;;;;;;;;;20.43;74.88;99408.03;3164298;28;19956;-71
2023/06/14 04:59:35;;;;;;;;;;;;;;;20.37;75.02;99400.66;3160922;28;20382;-71
2023/06/14 05:01:09;;;;;;;;;;;;;;;20.30;75.30;99407.50;3165387;28;19927;-72
2023/06/14 05:02:41;;;;;;;;;;;;;;;20.29;75.28;99411.13;3166095;28;19934;-70
2023/06/14 05:04:13;;;;;;;;;;;;;;;20.30;75.26;99407.50;3165909;28;19935;-71
2023/06/14 05:05:45;;;;;;;;;;;;;;;20.32;75.40;99410.00;3166149;28;19950;-71
2023/06/14 05:07:16;;;;;;;;;;;;;;;20.33;75.37;99409.03;3165906;28;19927;-71
2023/06/14 05:08:48;;;;;;;;;;;;;;;20.36;75.39;99411.41;3163842;28;19927;-71
2023/06/14 05:10:20;;;;;;;;;;;;;;;20.39;74.96;99416.41;3167710;28;19928;-71
2023/06/14 05:11:55;;;;;;;;;;;;;;;20.44;74.87;99411.53;3166024;28;20400;-71
2023/06/14 05:13:28;;;;;;;;;;;;;;;20.46;74.93;99412.22;3164897;28;19985;-71
2023/06/14 05:15:00;;;;;;;;;;;;;;;20.49;74.91;99417.22;3165981;28;19960;-72
2023/06/14 05:16:32;;;;;;;;;;;;;;;20.45;74.67;99399.97;3165956;28;19935;-72
2023/06/14 05:18:04;;;;;;;;;;;;;;;20.55;74.64;99416.69;3166236;28;19934;-71
2023/06/14 05:19:36;;;;;;;;;;;;;;;20.58;74.56;99413.75;3165825;28;19927;-71
2023/06/14 05:21:08;;;;;;;;;;;;;;;20.57;74.42;99414.72;3165848;28;20023;-69
2023/06/14 05:22:39;;;;;;;;;;;;;;;20.54;74.72;99425.59;3165689;28;20009;-70
2023/06/14 05:24:11;;;;;;;;;;;;;;;20.50;74.67;99426.84;3163292;28;20437;-70
2023/06/14 05:25:43;;;;;;;;;;;;;;;20.52;74.74;99429.31;3170309;28;19935;-72
2023/06/14 05:27:15;;;;;;;;;;;;;;;20.58;74.55;99434.91;3170864;28;19931;-71
2023/06/14 05:28:48;;;;;;;;;;;;;;;20.63;74.50;99424.75;3165186;28;20359;-72
2023/06/14 05:30:20;;;;;;;;;;;;;;;20.66;74.46;99429.75;3166030;28;20425;-70
2023/06/14 05:31:51;;;;;;;;;;;;;;;20.65;74.32;99433.38;3170638;28;20399;-71
2023/06/14 05:33:23;;;;;;;;;;;;;;;20.65;74.43;99436.03;3170766;28;20018;-71
2023/06/14 05:34:54;;;;;;;;;;;;;;;20.66;74.41;99435.03;3171159;28;20301;-68
2023/06/14 05:36:27;;;;;;;;;;;;;;;20.72;74.22;99438.09;3170302;28;20376;-74
2023/06/14 05:38:00;;;;;;;;;;;;;;;20.77;74.15;99430.56;3170937;28;19927;-74
2023/06/14 05:39:32;;;;;;;;;;;;;;;20.82;74.07;99438.91;3170888;28;20045;-73
2023/06/14 05:41:04;;;;;;;;;;;;;;;20.88;73.71;99438.31;3164768;28;20298;-75
2023/06/14 05:42:41;;;;;;;;;;;;;;;20.94;73.80;99436.91;3170024;28;19928;-76
2023/06/14 05:44:21;;;;;;;;;;;;;;;21.00;73.58;99438.97;3162105;28;19932;-73
2023/06/14 05:45:55;;;;;;;;;;;;;;;21.07;73.44;99448.03;3157989;28;19928;-73
2023/06/14 05:47:36;;;;;;;;;;;;;;;21.12;73.13;99446.63;3170245;28;19924;-72
2023/06/14 05:49:15;;;;;;;;;;;;;;;21.17;73.18;99447.97;3158285;28;19928;-72
2023/06/14 05:50:52;;;;;;;;;;;;;;;21.22;72.97;99451.03;3158250;28;19935;-71
2023/06/14 05:52:31;;;;;;;;;;;;;;;21.26;73.00;99460.34;3158230;28;19928;-71
2023/06/14 05:54:04;;;;;;;;;;;;;;;21.29;72.80;99462.69;3157438;28;19928;-70
2023/06/14 05:55:37;;;;;;;;;;;;;;;21.29;72.82;99460.88;3166276;28;19978;-72
2023/06/14 05:57:17;;;;;;;;;;;;;;;21.28;72.62;99456.56;3169518;28;20014;-72
2023/06/14 05:58:57;;;;;;;;;;;;;;;21.30;72.62;99459.09;3166211;28;20764;-71
2023/06/14 06:00:36;;;;;;;;;;;;;;;21.34;72.66;99453.34;3165098;28;19981;-70
2023/06/14 06:02:15;;;;;;;;;;;;;;;21.39;72.48;99458.25;3170730;28;19977;-73
2023/06/14 06:03:51;;;;;;;;;;;;;;;21.42;72.22;99455.28;3170494;28;19924;-72
2023/06/14 06:05:23;;;;;;;;;;;;;;;21.41;72.46;99452.78;3168014;28;19934;-72
2023/06/14 06:06:55;;;;;;;;;;;;;;;21.38;72.39;99455.72;3170293;28;19982;-74
2023/06/14 06:08:27;;;;;;;;;;;;;;;21.35;72.22;99454.16;3167124;28;19977;-77
2023/06/14 06:09:59;;;;;;;;;;;;;;;21.33;72.37;99449.03;3163738;28;19935;-77
2023/06/14 06:11:30;;;;;;;;;;;;;;;21.30;72.21;99451.97;3170612;28;19924;-73
2023/06/14 06:13:05;;;;;;;;;;;;;;;21.30;72.32;99453.78;3170324;28;19927;-74
2023/06/14 06:14:39;;;;;;;;;;;;;;;21.32;72.45;99450.00;3165430;28;20392;-73
2023/06/14 06:16:24;;;;;;;;;;;;;;;21.39;72.55;99452.09;3170742;28;19961;-73
2023/06/14 06:17:56;;;;;;;;;;;;;;;21.43;72.17;99456.94;3170462;28;20392;-73
2023/06/14 06:19:28;;;;;;;;;;;;;;;21.45;72.04;99452.34;3169938;28;19924;-72
2023/06/14 06:21:00;;;;;;;;;;;;;;;21.46;72.26;99456.66;3161211;28;19977;-75
2023/06/14 06:22:32;;;;;;;;;;;;;;;21.50;72.19;99452.75;3170345;28;19927;-76
2023/06/14 06:24:05;;;;;;;;;;;;;;;21.50;71.90;99452.75;3170319;28;19931;-74
2023/06/14 06:25:37;;;;;;;;;;;;;;;21.51;72.21;99457.06;3170379;28;19930;-73
2023/06/14 06:27:09;;;;;;;;;;;;;;;21.52;72.11;99460.53;3170127;28;20553;-74
2023/06/14 06:28:40;;;;;;;;;;;;;;;21.58;71.96;99458.13;3170816;28;19928;-72
2023/06/14 06:30:12;;;;;;;;;;;;;;;21.69;71.65;99461.56;3169517;28;19927;-70
2023/06/14 06:31:45;;;;;;;;;;;;;;;21.79;71.56;99459.66;3170542;28;20014;-71
2023/06/14 06:33:17;;;;;;;;;;;;;;;21.85;71.32;99458.25;3157916;28;19931;-70
2023/06/14 06:34:48;;;;;;;;;;;;;;;21.91;71.41;99455.81;3169258;28;20480;-73
2023/06/14 06:36:21;;;;;;;;;;;;;;;22.00;71.19;99462.03;3170201;28;19924;-74
2023/06/14 06:37:53;;;;;;;;;;;;;;;22.10;71.14;99465.47;3166753;28;19924;-74
2023/06/14 06:39:25;;;;;;;;;;;;;;;22.20;70.91;99462.75;3167475;28;19934;-69
2023/06/14 06:40:58;;;;;;;;;;;;;;;22.20;70.57;99462.75;3161682;28;19932;-73
2023/06/14 06:42:29;;;;;;;;;;;;;;;22.19;70.35;99463.75;3167575;28;19928;-72
2023/06/14 06:44:01;;;;;;;;;;;;;;;22.24;70.53;99464.13;3159797;28;19978;-72
2023/06/14 06:45:33;;;;;;;;;;;;;;;22.31;70.42;99467.00;3159747;28;19924;-71
2023/06/14 06:47:06;;;;;;;;;;;;;;;22.41;70.27;99459.78;3169726;28;19927;-72
2023/06/14 06:48:38;;;;;;;;;;;;;;;22.47;69.77;99457.34;3170128;28;19974;-74
2023/06/14 06:50:10;;;;;;;;;;;;;;;22.53;69.24;99463.03;3164607;28;19924;-74
2023/06/14 06:51:43;;;;;;;;;;;;;;;22.61;68.99;99466.59;3170220;28;19932;-74
2023/06/14 06:53:15;;;;;;;;;;;;;;;22.73;68.84;99469.81;3164565;28;19927;-72
2023/06/14 06:54:46;;;;;;;;;;;;;;;22.76;68.48;99464.19;3168541;28;19935;-70
2023/06/14 06:56:19;;;;;;;;;;;;;;;22.84;68.02;99472.22;3170177;28;20322;-70
2023/06/14 06:57:52;;;;;;;;;;;;;;;22.93;67.87;99468.63;3169877;28;19976;-70
2023/06/14 06:59:24;;;;;;;;;;;;;;;22.96;67.76;99469.34;3170068;28;19928;-70
2023/06/14 07:00:55;;;;;;;;;;;;;;;22.98;67.40;99464.69;3169158;28;20373;-70
2023/06/14 07:02:30;;;;;;;;;;;;;;;23.00;67.69;99462.72;3169849;28;19927;-69
2023/06/14 07:04:03;;;;;;;;;;;;;;;23.04;67.45;99469.38;3169950;28;19947;-71
2023/06/14 07:05:34;;;;;;;;;;;;;;;23.06;66.91;99467.41;3169439;28;19979;-66
2023/06/14 07:07:06;;;;;;;;;;;;;;;23.09;66.79;99470.56;3169146;28;19927;-66
2023/06/14 07:08:38;;;;;;;;;;;;;;;23.12;67.06;99466.75;3165232;28;19979;-68
2023/06/14 07:10:10;;;;;;;;;;;;;;;23.20;66.77;99469.47;3169064;28;20156;-71
2023/06/14 07:11:42;;;;;;;;;;;;;;;23.27;66.42;99467.84;3170146;28;19923;-71
2023/06/14 07:13:13;;;;;;;;;;;;;;;23.39;66.29;99471.88;3169928;28;19924;-71
2023/06/14 07:14:45;;;;;;;;;;;;;;;23.50;66.02;99472.59;3170020;28;19953;-70
2023/06/14 07:16:17;;;;;;;;;;;;;;;23.57;65.75;99469.16;3163763;28;19967;-71
2023/06/14 07:17:51;;;;;;;;;;;;;;;23.62;65.44;99463.31;3165832;28;20353;-71
2023/06/14 07:19:22;;;;;;;;;;;;;;;23.73;64.90;99468.38;3169699;28;20459;-71
2023/06/14 07:20:54;;;;;;;;;;;;;;;23.77;64.68;99464.41;3165225;28;19932;-70
2023/06/14 07:22:26;;;;;;;;;;;;;;;23.79;64.46;99465.06;3164715;28;20334;-68
2023/06/14 07:23:58;;;;;;;;;;;;;;;23.87;64.42;99469.59;3164055;28;20376;-69
2023/06/14 07:25:30;;;;;;;;;;;;;;;23.99;64.22;99462.13;3164643;28;19934;-66
2023/06/14 07:27:02;;;;;;;;;;;;;;;24.14;64.31;99460.50;3165749;28;19928;-67
2023/06/14 07:28:34;;;;;;;;;;;;;;;24.21;63.59;99461.47;3167018;28;19951;-70
2023/06/14 07:30:06;;;;;;;;;;;;;;;24.26;63.41;99458.34;3159662;28;19950;-66
2023/06/14 07:31:38;;;;;;;;;;;;;;;24.30;63.51;99457.81;3162085;28;19928;-69
2023/06/14 07:33:12;;;;;;;;;;;;;;;24.35;63.02;99460.00;3167039;28;19927;-69
2023/06/14 07:34:44;;;;;;;;;;;;;;;24.45;63.14;99451.88;3166873;28;20004;-66
2023/06/14 07:36:17;;;;;;;;;;;;;;;24.54;62.68;99452.69;3157746;28;19942;-67
2023/06/14 07:37:49;;;;;;;;;;;;;;;24.63;62.59;99452.50;3167146;28;19931;-67
2023/06/14 07:39:21;;;;;;;;;;;;;;;24.68;61.90;99452.84;3167327;28;19938;-66
2023/06/14 07:40:53;;;;;;;;;;;;;;;24.68;61.77;99447.53;3166760;28;19928;-66
2023/06/14 07:42:25;;;;;;;;;;;;;;;24.58;61.21;99452.22;3166819;28;19939;-67
2023/06/14 07:43:56;;;;;;;;;;;;;;;24.44;61.47;99455.53;3167097;28;19928;-70
2023/06/14 07:45:28;;;;;;;;;;;;;;;24.34;62.04;99460.16;3166575;28;20288;-68
2023/06/14 07:47:00;;;;;;;;;;;;;;;24.27;61.88;99458.16;3166806;28;20046;-70
2023/06/14 07:48:34;;;;;;;;;;;;;;;24.13;61.74;99458.81;3166853;28;19928;-69
2023/06/14 07:50:06;;;;;;;;;;;;;;;24.10;62.39;99453.00;3167132;28;19927;-68
2023/06/14 07:51:38;;;;;;;;;;;;;;;24.03;62.54;99463.47;3166916;28;20347;-68
2023/06/14 07:53:09;;;;;;;;;;;;;;;24.04;62.37;99451.81;3166967;28;20405;-68
2023/06/14 07:54:41;;;;;;;;;;;;;;;23.98;62.65;99444.50;3166388;28;19938;-69
2023/06/14 07:56:13;;;;;;;;;;;;;;;24.04;62.27;99449.97;3166725;28;19928;-67
2023/06/14 07:57:46;;;;;;;;;;;;;;;24.05;62.16;99459.66;3167074;28;20405;-69
2023/06/14 07:59:18;;;;;;;;;;;;;;;24.05;62.33;99450.84;3166640;28;19927;-69
2023/06/14 08:00:49;;;;;;;;;;;;;;;24.03;62.49;99452.81;3161372;28;20315;-67
2023/06/14 08:02:21;;;;;;;;;;;;;;;24.04;62.48;99457.13;3166518;28;20108;-67